Latest Weather Observations for Newdegate

IDW60801

Issued at 2:35 pm WST Monday 24 November 2014 (issued every 30 minutes, with the page automatically refreshed every 10 minutes)

About weather observations | Map of weather stations | Latest weather observations for WA | Other Formats
Station Details ID: 010692 Name: NEWDEGATE RESEARCH STATION Lat: -33.11 Lon: 118.84 Height: 320.0 m
Data from the previous 72 hours. | See also: Recent months at Newdegate
Date/Time
WST
Temp
°C
App
Temp
°C
Dew
Point
Rel
Hum
%
Delta-T
°C
Wind Press
QNH
hPa
Press
MSL
hPa
Rain
since 9 am
mm
Dir
 
Spd
km/h
Gust
km/h
Spd
kts
Gust
kts
24/02:30pm 23.8 19.1 0.8 22 10.8 ESE 15 28 8 15 1020.1 1019.2 0.0
24/02:00pm 23.0 19.4 0.8 23 10.3 E 9 15 5 8 1020.3 1019.4 0.0
24/01:30pm 22.9 18.6 1.3 24 10.2 ENE 13 24 7 13 1020.5 1019.6 0.0
24/01:00pm 23.3 20.2 1.6 24 10.3 NNE 7 22 4 12 1020.8 1019.9 0.0
24/12:30pm 22.9 19.1 1.9 25 10.0 E 11 20 6 11 1021.2 1020.3 0.0
24/12:00pm 21.1 17.6 1.4 27 9.1 SE 9 20 5 11 1021.5 1020.7 0.0
24/11:30am 20.5 17.0 1.4 28 8.9 ESE 9 20 5 11 1022.0 1021.2 0.0
24/11:00am 19.6 15.1 2.0 31 8.2 E 15 24 8 13 1022.5 1021.6 0.0
24/10:30am 19.3 15.3 2.6 33 7.9 ESE 13 26 7 14 1022.8 1021.9 0.0
24/10:00am 18.3 14.8 3.4 37 7.0 E 11 20 6 11 1023.0 1022.1 0.0
24/09:30am 17.6 14.1 3.5 39 6.7 E 11 20 6 11 1023.1 1022.2 0.0
24/09:00am 17.1 13.6 3.4 40 6.4 ESE 11 22 6 12 1023.3 1022.4 0.0
24/08:30am 16.1 12.2 3.2 42 6.0 ESE 13 20 7 11 1023.4 1022.5 0.0
24/08:00am 15.3 11.1 3.8 46 5.4 ESE 15 26 8 14 1023.4 1022.5 0.0
24/07:30am 14.5 9.9 3.6 48 5.0 ESE 17 26 9 14 1023.4 1022.5 0.0
24/07:00am 13.7 10.2 5.6 58 3.9 SE 13 20 7 11 1023.2 1022.3 0.0
24/06:30am 11.4 7.9 5.5 67 2.8 SSE 13 17 7 9 1022.9 1022.0 0.0
24/06:00am 9.0 6.5 6.6 85 1.1 S 9 13 5 7 1022.8 1021.9 0.0
24/05:30am 6.4 4.8 4.7 89 0.8 S 2 6 1 3 1022.5 1021.6 0.0
24/05:00am 4.5 2.9 2.5 87 0.8 CALM 0 0 0 0 1022.1 1021.3 0.0
24/04:30am 4.5 2.9 2.4 86 0.9 CALM 0 2 0 1 1021.8 1021.0 0.0
24/04:00am 4.8 2.5 2.5 85 0.9 S 4 4 2 2 1021.6 1020.8 0.0
24/03:30am 5.8 3.1 3.5 85 1.0 S 7 9 4 5 1021.4 1020.6 0.0
24/03:00am 6.4 3.4 4.2 86 1.0 S 9 11 5 6 1021.2 1020.3 0.0
24/02:30am 5.1 2.3 3.0 86 0.9 S 7 9 4 5 1021.2 1020.3 0.0
24/02:00am 5.0 2.3 2.7 85 1.0 S 6 6 3 3 1021.2 1020.3 0.0
24/01:30am 6.0 3.5 3.5 84 1.1 S 6 7 3 4 1021.1 1020.2 0.0
24/01:00am 6.6 4.1 3.9 83 1.2 S 6 7 3 4 1021.2 1020.3 0.0
24/12:30am 6.2 3.6 3.0 80 1.4 S 6 7 3 4 1021.3 1020.5 0.0
24/12:00am 8.0 6.0 4.4 78 1.6 S 4 6 2 3 1021.3 1020.5 0.0
 
Date/Time
WST
Temp
°C
App
Temp
°C
Dew
Point
Rel
Hum
%
Delta-T
°C
Wind Press
QNH
hPa
Press
MSL
hPa
Rain
since 9 am
mm
Dir
 
Spd
km/h
Gust
km/h
Spd
kts
Gust
kts
23/11:30pm 8.6 6.3 4.6 76 1.8 SSE 6 7 3 4 1021.3 1020.5 0.0
23/11:00pm 9.6 6.8 5.0 73 2.1 SE 9 13 5 7 1021.1 1020.2 0.0
23/10:30pm 10.3 7.2 5.5 72 2.2 SE 11 15 6 8 1021.2 1020.3 0.0
23/10:00pm 10.7 7.5 5.3 69 2.5 SE 11 15 6 8 1020.9 1020.0 0.0
23/09:30pm 11.5 8.0 5.4 66 2.9 SE 13 19 7 10 1020.6 1019.7 0.0
23/09:00pm 12.4 8.2 5.8 64 3.1 SSE 17 24 9 13 1020.4 1019.5 0.0
23/08:30pm 13.2 8.4 5.4 59 3.7 SSE 20 30 11 16 1019.7 1018.8 0.0
23/08:00pm 14.4 10.0 5.0 53 4.5 SSE 17 22 9 12 1019.0 1018.1 0.0
23/07:30pm 15.3 11.5 1.8 40 6.0 S 11 13 6 7 1018.2 1017.3 0.0
23/07:00pm 16.8 12.9 1.3 35 6.9 S 11 17 6 9 1017.6 1016.7 0.0
23/06:30pm 18.8 14.2 1.3 31 8.0 S 15 20 8 11 1017.1 1016.2 0.0
23/06:00pm 20.1 14.7 1.5 29 8.6 S 19 26 10 14 1016.5 1015.6 0.0
23/05:30pm 21.4 16.5 2.2 28 9.1 SW 17 24 9 13 1015.9 1014.9 0.0
23/05:00pm 22.0 16.8 2.2 27 9.4 SSW 19 32 10 17 1015.7 1014.7 0.0
23/04:30pm 22.7 17.3 2.2 26 9.8 SSW 20 28 11 15 1015.3 1014.4 0.0
23/04:00pm 22.7 17.4 1.7 25 10.0 WSW 19 28 10 15 1015.1 1014.2 0.0
23/03:30pm 22.6 17.3 3.2 28 9.5 SSW 20 35 11 19 1014.9 1014.0 0.0
23/03:00pm 22.4 17.7 3.0 28 9.4 SW 17 30 9 16 1014.9 1014.0 0.0
23/02:30pm 22.2 17.2 3.8 30 9.1 SW 19 28 10 15 1015.0 1014.1 0.0
23/02:00pm 22.0 17.4 3.6 30 9.0 SSW 17 22 9 12 1015.0 1014.1 0.0
23/01:30pm 23.1 17.8 5.1 31 9.1 W 22 33 12 18 1015.1 1014.2 0.0
23/01:00pm 22.6 17.6 4.6 31 9.0 SW 20 30 11 16 1015.1 1014.2 0.0
23/12:30pm 22.6 17.6 4.6 31 9.0 SW 20 28 11 15 1015.2 1014.3 0.0
23/12:00pm 21.1 16.9 5.5 36 7.9 SW 17 37 9 20 1015.3 1014.4 0.0
23/11:30am 21.6 16.4 5.5 35 8.1 W 22 30 12 16 1015.5 1014.6 0.0
23/11:00am 18.9 14.0 5.0 40 6.8 WSW 20 32 11 17 1015.7 1014.7 0.0
23/10:30am 19.9 15.4 7.0 43 6.6 SW 20 30 11 16 1015.9 1014.9 0.0
23/10:00am 19.1 14.7 7.2 46 6.1 WSW 20 28 11 15 1015.9 1014.9 0.0
23/09:30am 17.4 12.8 6.6 49 5.4 WSW 20 28 11 15 1015.9 1014.9 0.0
23/09:00am 17.0 11.7 6.8 51 5.1 SW 24 33 13 18 1015.8 1014.8 0.0
23/08:30am 16.6 11.3 6.7 52 5.0 SW 24 30 13 16 1015.8 1014.8 0.0
23/08:00am 16.1 10.7 6.5 53 4.8 WSW 24 37 13 20 1015.5 1014.6 0.0
23/07:30am 16.5 12.3 7.4 55 4.6 WSW 19 30 10 16 1015.4 1014.5 0.0
23/07:00am 15.0 10.2 7.3 60 3.9 WSW 22 30 12 16 1015.1 1014.2 0.0
23/06:30am 13.5 10.0 7.3 66 3.1 W 15 26 8 14 1014.9 1014.0 0.0
23/06:00am 11.6 10.4 7.9 78 1.8 W 4 9 2 5 1014.6 1013.7 0.0
23/05:30am 9.0 7.4 6.4 84 1.2 W 4 6 2 3 1014.3 1013.4 0.0
23/05:00am 7.6 6.4 4.7 82 1.3 CALM 0 0 0 0 1014.0 1013.1 0.0
23/04:30am 8.1 6.3 5.2 82 1.3 W 4 6 2 3 1013.8 1012.9 0.0
23/04:00am 8.2 5.9 4.8 79 1.5 W 6 7 3 4 1013.5 1012.6 0.0
23/03:30am 8.7 6.4 4.7 76 1.8 W 6 7 3 4 1013.2 1012.3 0.0
23/03:00am 10.3 8.1 5.5 72 2.2 W 6 7 3 4 1013.1 1012.1 0.0
23/02:30am 11.0 8.8 5.3 68 2.7 WSW 6 7 3 4 1013.1 1012.1 0.0
23/02:00am 13.3 8.8 6.2 62 3.4 SW 19 24 10 13 1013.1 1012.1 0.0
23/01:30am 13.3 9.6 6.4 63 3.4 SW 15 19 8 10 1013.1 1012.1 0.0
23/01:00am 12.8 10.4 8.7 76 2.1 SSW 11 17 6 9 1013.2 1012.3 0.0
23/12:30am 11.2 9.5 7.5 78 1.8 S 6 9 3 5 1013.2 1012.3 0.0
23/12:00am 12.8 10.4 8.5 75 2.2 SSE 11 15 6 8 1013.0 1012.0 0.0
 
Date/Time
WST
Temp
°C
App
Temp
°C
Dew
Point
Rel
Hum
%
Delta-T
°C
Wind Press
QNH
hPa
Press
MSL
hPa
Rain
since 9 am
mm
Dir
 
Spd
km/h
Gust
km/h
Spd
kts
Gust
kts
22/11:30pm 15.1 10.7 7.4 60 3.9 WSW 20 30 11 16 1012.8 1011.8 0.0
22/11:00pm 15.8 11.1 7.8 59 4.1 WSW 22 35 12 19 1012.9 1011.9 0.0
22/10:30pm 16.5 12.3 8.2 58 4.3 WSW 20 30 11 16 1013.0 1012.0 0.0
22/10:00pm 17.1 12.5 8.0 55 4.7 WSW 22 30 12 16 1012.8 1011.8 0.0
22/09:30pm 17.5 13.7 7.5 52 5.1 WSW 17 24 9 13 1012.5 1011.5 0.0
22/09:00pm 17.9 14.3 6.7 48 5.7 WSW 15 22 8 12 1012.2 1011.3 0.0
22/08:30pm 15.1 12.4 5.6 53 4.6 WSW 9 11 5 6 1011.8 1010.9 0.0
22/08:00pm 16.3 13.8 5.0 47 5.5 W 7 9 4 5 1011.7 1010.8 0.0
22/07:30pm 18.7 15.4 4.5 39 6.9 W 11 13 6 7 1011.5 1010.6 0.0
22/07:00pm 20.0 16.2 4.1 35 7.8 W 13 19 7 10 1011.3 1010.4 0.0
22/06:30pm 21.4 17.2 3.6 31 8.7 W 15 26 8 14 1011.2 1010.3 0.0
22/06:00pm 22.6 18.1 4.2 30 9.2 W 17 22 9 12 1010.8 1009.9 0.0
22/05:30pm 22.9 18.0 3.9 29 9.4 W 19 30 10 16 1010.5 1009.6 0.0
22/05:00pm 23.4 18.8 3.9 28 9.7 W 17 24 9 13 1010.3 1009.3 0.0
22/04:30pm 23.5 19.1 4.5 29 9.6 W 17 32 9 17 1010.4 1009.4 0.0
22/04:00pm 24.6 21.0 4.9 28 10.1 WNW 13 20 7 11 1010.4 1009.4 0.0
22/03:30pm 24.2 19.0 3.5 26 10.3 WNW 20 26 11 14 1010.6 1009.7 0.0
22/03:00pm 24.1 18.4 5.0 29 9.7 W 24 33 13 18 1010.8 1009.9 0.0
22/02:30pm 23.1 18.3 4.6 30 9.3 WSW 19 26 10 14 1011.0 1010.1 0.0
22/02:00pm 24.6 20.0 5.4 29 9.9 W 19 30 10 16 1011.2 1010.3 0.0
22/01:30pm 23.8 19.4 4.7 29 9.7 W 17 26 9 14 1011.4 1010.5 0.0
22/01:00pm 22.7 18.2 4.2 30 9.2 W 17 26 9 14 1011.7 1010.8 0.0
22/12:30pm 22.6 18.9 4.6 31 9.0 W 13 20 7 11 1011.8 1010.9 0.0
22/12:00pm 22.5 17.9 5.4 33 8.7 WSW 19 26 10 14 1012.0 1011.1 0.0
22/11:30am 20.9 17.2 4.5 34 8.1 WNW 13 24 7 13 1012.5 1011.5 0.0
22/11:00am 20.1 16.5 5.0 37 7.5 W 13 22 7 12 1012.7 1011.7 0.0
22/10:30am 19.8 16.4 5.8 40 7.0 W 13 26 7 14 1013.1 1012.1 0.0
22/10:00am 18.3 14.5 5.8 44 6.2 SW 15 20 8 11 1013.2 1012.3 0.0
22/09:30am 18.3 14.5 5.8 44 6.2 SSW 15 22 8 12 1013.3 1012.4 0.0
22/09:00am 17.3 13.1 5.6 46 5.8 WSW 17 26 9 14 1013.3 1012.4 0.0
22/08:30am 16.8 13.0 6.0 49 5.3 WSW 15 24 8 13 1013.4 1012.5 0.0
22/08:00am 16.6 12.5 6.4 51 5.1 WSW 17 22 9 12 1013.3 1012.4 0.0
22/07:30am 16.5 12.8 6.1 50 5.1 WSW 15 24 8 13 1013.2 1012.3 0.0
22/07:00am 15.0 10.8 7.5 61 3.8 SW 19 26 10 14 1013.0 1012.0 0.0
22/06:30am 14.5 12.1 8.5 67 3.1 WSW 11 17 6 9 1012.7 1011.7 0.0
22/06:00am 14.0 11.3 9.0 72 2.6 WSW 13 20 7 11 1012.5 1011.5 0.0
22/05:30am 13.6 12.3 9.8 78 2.0 SW 7 11 4 6 1012.1 1011.2 0.0
22/05:00am 13.4 11.6 9.6 78 2.0 SSW 9 13 5 7 1011.8 1010.9 0.0
22/04:30am 13.2 11.4 9.6 79 1.9 SSW 9 11 5 6 1011.4 1010.5 0.0
22/04:00am 13.2 11.1 9.6 79 1.9 SSW 11 13 6 7 1011.1 1010.2 0.0
22/03:30am 13.2 11.1 9.8 80 1.8 SSW 11 15 6 8 1011.0 1010.1 0.0
22/03:00am 12.7 10.1 9.5 81 1.7 SW 13 17 7 9 1010.8 1009.9 0.0
22/02:30am 13.0 9.7 9.4 79 1.9 SSW 17 22 9 12 1010.6 1009.7 0.0
22/02:00am 13.4 10.9 9.6 78 2.0 SW 13 17 7 9 1010.6 1009.7 0.0
22/01:30am 13.1 10.9 9.4 78 1.9 SW 11 15 6 8 1010.7 1009.8 0.0
22/01:00am 12.9 10.9 8.6 75 2.2 SW 9 13 5 7 1010.8 1009.9 0.0
22/12:30am 13.3 10.5 7.1 66 3.1 SW 11 13 6 7 1011.0 1010.1 0.0
22/12:00am 14.1 11.0 7.2 63 3.4 WSW 13 17 7 9 1011.0 1010.1 0.0
 
Date/Time
WST
Temp
°C
App
Temp
°C
Dew
Point
Rel
Hum
%
Delta-T
°C
Wind Press
QNH
hPa
Press
MSL
hPa
Rain
since 9 am
mm
Dir
 
Spd
km/h
Gust
km/h
Spd
kts
Gust
kts
21/11:30pm 13.7 11.2 6.6 62 3.5 WSW 9 13 5 7 1010.9 1010.0 0.0
21/11:00pm 14.5 11.6 6.3 58 4.0 W 11 15 6 8 1010.9 1010.0 0.0
21/10:30pm 15.5 12.9 6.0 53 4.7 W 9 13 5 7 1010.9 1010.0 0.0
21/10:00pm 16.5 13.1 6.1 50 5.2 W 13 19 7 10 1010.9 1010.0 0.0
21/09:30pm 17.1 13.7 6.0 48 5.5 W 13 22 7 12 1010.8 1009.9 0.0
21/09:00pm 17.1 14.5 6.3 49 5.4 W 9 17 5 9 1010.8 1009.9 0.0
21/08:30pm 17.7 15.0 5.6 45 6.0 W 9 13 5 7 1010.5 1009.6 0.0
21/08:00pm 18.3 15.2 5.5 43 6.3 WSW 11 17 6 9 1010.1 1009.1 0.0
21/07:30pm 19.4 15.4 5.1 39 7.1 WSW 15 22 8 12 1009.7 1008.7 0.0
21/07:00pm 20.8 16.5 5.2 36 7.8 WSW 17 26 9 14 1009.5 1008.5 0.0
21/06:30pm 22.0 16.5 4.1 31 8.8 W 22 32 12 17 1009.4 1008.4 0.0
21/06:00pm 23.7 19.2 4.1 28 9.8 W 17 30 9 16 1008.7 1007.8 0.0
21/05:30pm 24.6 19.1 3.8 26 10.4 W 22 39 12 21 1008.3 1007.4 0.0
21/05:00pm 25.1 19.5 3.7 25 10.7 W 22 37 12 20 1008.0 1007.1 0.0
21/04:30pm 25.5 18.8 3.5 24 11.0 WNW 28 43 15 23 1008.0 1007.1 0.0
21/04:00pm 26.0 19.8 4.5 25 11.0 WNW 26 43 14 23 1007.8 1006.9 0.0
21/03:30pm 26.2 21.1 4.1 24 11.2 W 20 37 11 20 1007.7 1006.7 0.0
21/03:00pm 26.0 20.1 3.9 24 11.2 W 24 37 13 20 1007.8 1006.9 0.0

Other Formats:

Comma delimited format used in spreadsheet applications
http://www.bom.gov.au/fwo/IDW60801/IDW60801.94628.axf

JavaScript Object Notation format (JSON) in row-major order
http://www.bom.gov.au/fwo/IDW60801/IDW60801.94628.json